N747RX KJAC-KEGE
Flight info
| Callsign | N747RX |
|---|---|
| Flight time | 0h 58m |
| Altitude | 45000 |
| Route | ALPIN5 BPI HYPPE AAVON1 |
| Aircraft | C750/M-SBDE3FGHRWXY/S |
Departure
| Time | 2026-04-28 18:29 |
|---|---|
| Airport | Jackson Hole Airport (KJAC) |
Arrival
| Time | 2026-04-28 19:27 |
|---|---|
| Airport | Eagle County Regional Airport (KEGE) |
| Time | Latitude | Longitude | Altitude | Speed | Heading |
|---|---|---|---|---|---|
| 2026-04-28 18:09 | 43.60003 | -110.73807 | 6420 ft | 0 kts | 290° |
| 2026-04-28 18:24 | 43.60004 | -110.73811 | 6420 ft | 1 kts | 286° |
| 2026-04-28 18:24 | 43.59998 | -110.73842 | 6420 ft | 8 kts | 239° |
| 2026-04-28 18:24 | 43.59993 | -110.73923 | 6419 ft | 9 kts | 288° |
| 2026-04-28 18:24 | 43.60052 | -110.73951 | 6420 ft | 12 kts | 20° |
| 2026-04-28 18:25 | 43.60151 | -110.73903 | 6421 ft | 13 kts | 18° |
| 2026-04-28 18:25 | 43.60225 | -110.73865 | 6423 ft | 14 kts | 19° |
| 2026-04-28 18:25 | 43.60354 | -110.73801 | 6424 ft | 23 kts | 20° |
| 2026-04-28 18:26 | 43.60658 | -110.73653 | 6430 ft | 21 kts | 20° |
| 2026-04-28 18:26 | 43.60795 | -110.73587 | 6432 ft | 20 kts | 19° |
| 2026-04-28 18:26 | 43.60925 | -110.73523 | 6435 ft | 20 kts | 19° |
| 2026-04-28 18:26 | 43.61053 | -110.73462 | 6437 ft | 18 kts | 18° |
| 2026-04-28 18:27 | 43.61163 | -110.73405 | 6440 ft | 13 kts | 19° |
| 2026-04-28 18:27 | 43.61230 | -110.73373 | 6441 ft | 9 kts | 18° |
| 2026-04-28 18:27 | 43.61301 | -110.73340 | 6443 ft | 10 kts | 19° |
| 2026-04-28 18:27 | 43.61390 | -110.73297 | 6445 ft | 15 kts | 19° |
| 2026-04-28 18:28 | 43.61470 | -110.73259 | 6447 ft | 11 kts | 11° |
| 2026-04-28 18:28 | 43.61520 | -110.73319 | 6447 ft | 10 kts | 285° |
| 2026-04-28 18:28 | 43.61526 | -110.73386 | 6447 ft | 3 kts | 233° |
| 2026-04-28 18:28 | 43.61307 | -110.73495 | 6442 ft | 82 kts | 201° |
| 2026-04-28 18:29 | 43.60477 | -110.73902 | 6471 ft | 162 kts | 201° |
| 2026-04-28 18:29 | 43.59327 | -110.74472 | 7163 ft | 193 kts | 201° |
| 2026-04-28 18:29 | 43.58064 | -110.75307 | 8140 ft | 215 kts | 210° |
| 2026-04-28 18:29 | 43.56668 | -110.76321 | 8959 ft | 240 kts | 207° |
| 2026-04-28 18:30 | 43.55088 | -110.77365 | 9607 ft | 274 kts | 208° |
| 2026-04-28 18:30 | 43.54497 | -110.77756 | 9588 ft | 293 kts | 207° |
| 2026-04-28 18:30 | 43.51106 | -110.80012 | 10373 ft | 349 kts | 207° |
| 2026-04-28 18:30 | 43.48908 | -110.81383 | 11595 ft | 354 kts | 207° |
| 2026-04-28 18:31 | 43.46673 | -110.82822 | 12861 ft | 357 kts | 207° |
| 2026-04-28 18:31 | 43.44421 | -110.84285 | 14039 ft | 361 kts | 207° |
| 2026-04-28 18:31 | 43.42149 | -110.85752 | 15058 ft | 369 kts | 207° |
| 2026-04-28 18:31 | 43.39809 | -110.87266 | 16053 ft | 376 kts | 208° |
| 2026-04-28 18:32 | 43.37419 | -110.88805 | 16997 ft | 382 kts | 207° |
| 2026-04-28 18:32 | 43.35018 | -110.90353 | 17933 ft | 388 kts | 207° |
| 2026-04-28 18:32 | 43.32567 | -110.91932 | 18817 ft | 394 kts | 208° |
| 2026-04-28 18:32 | 43.30049 | -110.93506 | 19697 ft | 400 kts | 206° |
| 2026-04-28 18:33 | 43.27540 | -110.95172 | 20519 ft | 405 kts | 208° |
| 2026-04-28 18:33 | 43.24883 | -110.96589 | 21266 ft | 416 kts | 195° |
| 2026-04-28 18:33 | 43.21981 | -110.96641 | 22030 ft | 427 kts | 171° |
| 2026-04-28 18:33 | 43.19152 | -110.95309 | 22760 ft | 435 kts | 153° |
| 2026-04-28 18:34 | 43.16819 | -110.92737 | 23449 ft | 442 kts | 130° |
| 2026-04-28 18:34 | 43.15063 | -110.89277 | 24187 ft | 446 kts | 126° |
| 2026-04-28 18:34 | 43.12860 | -110.86256 | 24875 ft | 450 kts | 139° |
| 2026-04-28 18:34 | 43.10687 | -110.83217 | 25522 ft | 455 kts | 134° |
| 2026-04-28 18:35 | 43.08449 | -110.80124 | 26172 ft | 459 kts | 135° |
| 2026-04-28 18:35 | 43.06194 | -110.76988 | 26787 ft | 464 kts | 135° |
| 2026-04-28 18:35 | 43.03908 | -110.73828 | 27364 ft | 469 kts | 135° |
| 2026-04-28 18:35 | 43.01606 | -110.70640 | 27942 ft | 473 kts | 135° |
| 2026-04-28 18:36 | 42.99303 | -110.67457 | 28510 ft | 477 kts | 135° |
| 2026-04-28 18:36 | 42.96961 | -110.64229 | 29027 ft | 482 kts | 135° |
| 2026-04-28 18:36 | 42.94562 | -110.60919 | 29558 ft | 486 kts | 136° |
| 2026-04-28 18:36 | 42.92200 | -110.57667 | 30168 ft | 488 kts | 136° |
| 2026-04-28 18:37 | 42.89805 | -110.54378 | 30907 ft | 486 kts | 136° |
| 2026-04-28 18:37 | 42.87394 | -110.51063 | 31590 ft | 484 kts | 136° |
| 2026-04-28 18:37 | 42.84990 | -110.47760 | 32229 ft | 483 kts | 136° |
| 2026-04-28 18:37 | 42.82612 | -110.44500 | 32788 ft | 484 kts | 136° |
| 2026-04-28 18:38 | 42.80206 | -110.41215 | 33398 ft | 484 kts | 136° |
| 2026-04-28 18:38 | 42.77807 | -110.37930 | 34002 ft | 483 kts | 137° |
| 2026-04-28 18:38 | 42.75409 | -110.34655 | 34525 ft | 482 kts | 137° |
| 2026-04-28 18:38 | 42.73037 | -110.31427 | 35068 ft | 479 kts | 137° |
| 2026-04-28 18:39 | 42.70691 | -110.28232 | 35561 ft | 477 kts | 137° |
| 2026-04-28 18:39 | 42.68346 | -110.25042 | 35999 ft | 476 kts | 137° |
| 2026-04-28 18:39 | 42.66006 | -110.21862 | 36453 ft | 476 kts | 137° |
| 2026-04-28 18:39 | 42.63655 | -110.18671 | 36915 ft | 477 kts | 137° |
| 2026-04-28 18:40 | 42.61329 | -110.15515 | 37359 ft | 476 kts | 137° |
| 2026-04-28 18:40 | 42.58940 | -110.12390 | 37811 ft | 474 kts | 144° |
| 2026-04-28 18:40 | 42.56114 | -110.10232 | 38208 ft | 464 kts | 163° |
| 2026-04-28 18:40 | 42.53073 | -110.08961 | 38623 ft | 461 kts | 167° |
| 2026-04-28 18:41 | 42.49977 | -110.07703 | 39042 ft | 462 kts | 167° |
| 2026-04-28 18:41 | 42.46890 | -110.06454 | 39416 ft | 462 kts | 167° |
| 2026-04-28 18:41 | 42.43825 | -110.05216 | 39823 ft | 461 kts | 167° |
| 2026-04-28 18:41 | 42.40748 | -110.03977 | 40228 ft | 460 kts | 167° |
| 2026-04-28 18:42 | 42.37684 | -110.02743 | 40627 ft | 459 kts | 167° |
| 2026-04-28 18:42 | 42.34659 | -110.01527 | 40939 ft | 460 kts | 167° |
| 2026-04-28 18:42 | 42.31598 | -110.00296 | 41286 ft | 459 kts | 167° |
| 2026-04-28 18:42 | 42.28515 | -109.99060 | 41632 ft | 459 kts | 167° |
| 2026-04-28 18:43 | 42.25462 | -109.97832 | 42024 ft | 457 kts | 167° |
| 2026-04-28 18:43 | 42.22439 | -109.96622 | 42383 ft | 456 kts | 167° |
| 2026-04-28 18:43 | 42.19395 | -109.95403 | 42672 ft | 456 kts | 167° |
| 2026-04-28 18:43 | 42.16374 | -109.94195 | 42953 ft | 456 kts | 167° |
| 2026-04-28 18:44 | 42.13317 | -109.92973 | 43218 ft | 456 kts | 167° |
| 2026-04-28 18:44 | 42.07269 | -109.90564 | 43760 ft | 455 kts | 167° |
| 2026-04-28 18:44 | 42.04247 | -109.89360 | 44045 ft | 454 kts | 167° |
| 2026-04-28 18:45 | 42.01212 | -109.88151 | 44344 ft | 453 kts | 167° |
| 2026-04-28 18:45 | 41.98161 | -109.86942 | 44571 ft | 453 kts | 167° |
| 2026-04-28 18:45 | 41.95146 | -109.85741 | 44797 ft | 453 kts | 167° |
| 2026-04-28 18:45 | 41.92099 | -109.84536 | 45005 ft | 454 kts | 167° |
| 2026-04-28 18:46 | 41.89084 | -109.83340 | 45131 ft | 456 kts | 167° |
| 2026-04-28 18:46 | 41.86030 | -109.82130 | 45145 ft | 460 kts | 167° |
| 2026-04-28 18:46 | 41.79794 | -109.79666 | 45138 ft | 469 kts | 167° |
| 2026-04-28 18:47 | 41.73488 | -109.77177 | 45160 ft | 477 kts | 167° |
| 2026-04-28 18:47 | 41.67038 | -109.74639 | 45165 ft | 486 kts | 167° |
| 2026-04-28 18:48 | 41.60519 | -109.72076 | 45167 ft | 493 kts | 167° |
| 2026-04-28 18:48 | 41.53846 | -109.69462 | 45179 ft | 500 kts | 167° |
| 2026-04-28 18:49 | 41.49393 | -109.67718 | 45163 ft | 505 kts | 167° |
| 2026-04-28 18:49 | 41.40326 | -109.64180 | 45187 ft | 513 kts | 167° |
| 2026-04-28 18:50 | 41.33486 | -109.61515 | 45168 ft | 518 kts | 167° |
| 2026-04-28 18:50 | 41.26601 | -109.58836 | 45184 ft | 502 kts | 167° |
| 2026-04-28 18:51 | 41.23264 | -109.57538 | 45187 ft | 487 kts | 167° |
| 2026-04-28 18:51 | 41.20056 | -109.56295 | 45148 ft | 472 kts | 167° |
| 2026-04-28 18:51 | 41.16940 | -109.55087 | 45165 ft | 458 kts | 167° |
| 2026-04-28 18:51 | 41.13911 | -109.53916 | 45157 ft | 449 kts | 168° |
| 2026-04-28 18:52 | 41.07968 | -109.51623 | 45176 ft | 444 kts | 168° |
| 2026-04-28 18:52 | 41.02003 | -109.49328 | 45165 ft | 448 kts | 168° |
| 2026-04-28 18:53 | 40.95915 | -109.46986 | 45199 ft | 451 kts | 168° |
| 2026-04-28 18:53 | 40.89881 | -109.44669 | 45180 ft | 451 kts | 168° |
| 2026-04-28 18:54 | 40.83830 | -109.42348 | 45159 ft | 449 kts | 168° |
| 2026-04-28 18:54 | 40.77846 | -109.40054 | 45150 ft | 445 kts | 168° |
| 2026-04-28 18:55 | 40.72859 | -109.38150 | 45158 ft | 443 kts | 168° |
| 2026-04-28 18:55 | 40.65971 | -109.35526 | 45154 ft | 439 kts | 168° |
| 2026-04-28 18:56 | 40.60096 | -109.33290 | 45147 ft | 435 kts | 169° |
| 2026-04-28 18:56 | 40.54311 | -109.31091 | 45190 ft | 432 kts | 169° |
| 2026-04-28 18:57 | 40.48525 | -109.28903 | 45170 ft | 434 kts | 169° |
| 2026-04-28 18:57 | 40.42664 | -109.26682 | 45200 ft | 435 kts | 169° |
| 2026-04-28 18:58 | 40.37112 | -109.23615 | 45173 ft | 449 kts | 144° |
| 2026-04-28 18:58 | 40.35045 | -109.20517 | 45213 ft | 458 kts | 127° |
| 2026-04-28 18:58 | 40.33279 | -109.17050 | 45186 ft | 451 kts | 129° |
| 2026-04-28 18:59 | 40.31486 | -109.13711 | 44832 ft | 451 kts | 129° |
| 2026-04-28 18:59 | 40.29658 | -109.10335 | 44332 ft | 455 kts | 129° |
| 2026-04-28 18:59 | 40.27807 | -109.06911 | 43941 ft | 458 kts | 129° |
| 2026-04-28 18:59 | 40.25970 | -109.03532 | 43591 ft | 459 kts | 130° |
| 2026-04-28 19:00 | 40.24120 | -109.00127 | 43257 ft | 461 kts | 130° |
| 2026-04-28 19:00 | 40.22265 | -108.96719 | 42919 ft | 461 kts | 130° |
| 2026-04-28 19:00 | 40.20398 | -108.93288 | 42600 ft | 463 kts | 130° |
| 2026-04-28 19:00 | 40.18526 | -108.89853 | 42307 ft | 463 kts | 130° |
| 2026-04-28 19:01 | 40.16666 | -108.86443 | 41968 ft | 464 kts | 130° |
| 2026-04-28 19:01 | 40.14773 | -108.82992 | 41614 ft | 465 kts | 130° |
| 2026-04-28 19:01 | 40.12898 | -108.79561 | 41270 ft | 467 kts | 130° |
| 2026-04-28 19:01 | 40.11010 | -108.76102 | 40942 ft | 469 kts | 130° |
| 2026-04-28 19:02 | 40.09113 | -108.72649 | 40660 ft | 469 kts | 130° |
| 2026-04-28 19:02 | 40.07199 | -108.69152 | 40339 ft | 469 kts | 130° |
| 2026-04-28 19:02 | 40.05314 | -108.65727 | 39843 ft | 464 kts | 131° |
| 2026-04-28 19:02 | 40.03422 | -108.62287 | 39041 ft | 468 kts | 131° |
| 2026-04-28 19:03 | 40.01515 | -108.58826 | 38153 ft | 475 kts | 131° |
| 2026-04-28 19:03 | 39.99591 | -108.55331 | 37429 ft | 475 kts | 131° |
| 2026-04-28 19:03 | 39.97655 | -108.51837 | 36603 ft | 478 kts | 131° |
| 2026-04-28 19:03 | 39.95712 | -108.48319 | 35846 ft | 478 kts | 131° |
| 2026-04-28 19:04 | 39.93800 | -108.44849 | 35207 ft | 481 kts | 131° |
| 2026-04-28 19:04 | 39.91830 | -108.41290 | 34587 ft | 485 kts | 131° |
| 2026-04-28 19:04 | 39.89845 | -108.37723 | 34033 ft | 486 kts | 131° |
| 2026-04-28 19:04 | 39.87854 | -108.34126 | 33402 ft | 486 kts | 132° |
| 2026-04-28 19:05 | 39.85856 | -108.30543 | 32799 ft | 488 kts | 132° |
| 2026-04-28 19:05 | 39.83847 | -108.26936 | 32195 ft | 492 kts | 132° |
| 2026-04-28 19:05 | 39.81846 | -108.23328 | 31785 ft | 492 kts | 132° |
| 2026-04-28 19:05 | 39.79833 | -108.19708 | 31394 ft | 494 kts | 130° |
| 2026-04-28 19:06 | 39.78328 | -108.15681 | 31187 ft | 509 kts | 109° |
| 2026-04-28 19:06 | 39.77920 | -108.12647 | 31169 ft | 514 kts | 95° |
| 2026-04-28 19:06 | 39.78454 | -108.06638 | 31163 ft | 502 kts | 68° |
| 2026-04-28 19:06 | 39.79921 | -108.02615 | 31197 ft | 489 kts | 58° |
| 2026-04-28 19:07 | 39.82778 | -107.94617 | 31171 ft | 489 kts | 62° |
| 2026-04-28 19:07 | 39.85529 | -107.86417 | 31158 ft | 494 kts | 62° |
| 2026-04-28 19:08 | 39.88258 | -107.78199 | 30853 ft | 502 kts | 63° |
| 2026-04-28 19:08 | 39.89658 | -107.73986 | 30144 ft | 504 kts | 63° |
| 2026-04-28 19:08 | 39.91021 | -107.69865 | 29401 ft | 497 kts | 63° |
| 2026-04-28 19:09 | 39.92374 | -107.65775 | 28634 ft | 493 kts | 63° |
| 2026-04-28 19:09 | 39.93731 | -107.61652 | 27841 ft | 489 kts | 63° |
| 2026-04-28 19:09 | 39.95063 | -107.57616 | 27171 ft | 481 kts | 63° |
| 2026-04-28 19:09 | 39.96360 | -107.53675 | 26588 ft | 472 kts | 63° |
| 2026-04-28 19:10 | 39.97642 | -107.49783 | 26029 ft | 463 kts | 63° |
| 2026-04-28 19:10 | 39.98894 | -107.45980 | 25371 ft | 457 kts | 63° |
| 2026-04-28 19:10 | 40.00123 | -107.42220 | 24718 ft | 452 kts | 62° |
| 2026-04-28 19:10 | 40.01356 | -107.38478 | 23992 ft | 449 kts | 63° |
| 2026-04-28 19:11 | 40.02546 | -107.34724 | 23230 ft | 449 kts | 68° |
| 2026-04-28 19:11 | 40.03130 | -107.30781 | 23075 ft | 436 kts | 81° |
| 2026-04-28 19:11 | 40.03576 | -107.26852 | 22742 ft | 439 kts | 81° |
| 2026-04-28 19:11 | 40.04000 | -107.22875 | 22060 ft | 445 kts | 81° |
| 2026-04-28 19:12 | 40.04424 | -107.18939 | 21350 ft | 438 kts | 81° |
| 2026-04-28 19:12 | 40.04842 | -107.15080 | 20634 ft | 430 kts | 81° |
| 2026-04-28 19:12 | 40.05256 | -107.11259 | 19934 ft | 423 kts | 81° |
| 2026-04-28 19:12 | 40.05659 | -107.07496 | 19228 ft | 415 kts | 81° |
| 2026-04-28 19:13 | 40.06057 | -107.03793 | 18516 ft | 401 kts | 81° |
| 2026-04-28 19:13 | 40.06426 | -107.00317 | 17853 ft | 386 kts | 81° |
| 2026-04-28 19:13 | 40.06782 | -106.96957 | 17150 ft | 358 kts | 81° |
| 2026-04-28 19:13 | 40.07111 | -106.93870 | 16629 ft | 337 kts | 81° |
| 2026-04-28 19:14 | 40.07426 | -106.90887 | 16271 ft | 326 kts | 82° |
| 2026-04-28 19:14 | 40.07733 | -106.87983 | 16188 ft | 319 kts | 81° |
| 2026-04-28 19:14 | 40.08031 | -106.85155 | 16088 ft | 314 kts | 81° |
| 2026-04-28 19:14 | 40.08319 | -106.82349 | 15977 ft | 311 kts | 83° |
| 2026-04-28 19:15 | 40.08238 | -106.79562 | 15940 ft | 307 kts | 99° |
| 2026-04-28 19:15 | 40.07939 | -106.76804 | 15929 ft | 304 kts | 98° |
| 2026-04-28 19:15 | 40.07664 | -106.74085 | 15935 ft | 303 kts | 98° |
| 2026-04-28 19:15 | 40.07478 | -106.72284 | 15933 ft | 303 kts | 98° |
| 2026-04-28 19:16 | 40.07107 | -106.68656 | 15942 ft | 302 kts | 98° |
| 2026-04-28 19:16 | 40.06833 | -106.65942 | 15935 ft | 301 kts | 98° |
| 2026-04-28 19:16 | 40.06558 | -106.63254 | 15937 ft | 301 kts | 99° |
| 2026-04-28 19:16 | 40.05860 | -106.60715 | 15940 ft | 295 kts | 129° |
| 2026-04-28 19:17 | 40.04333 | -106.59100 | 15976 ft | 280 kts | 161° |
| 2026-04-28 19:17 | 40.02473 | -106.58685 | 15984 ft | 264 kts | 189° |
| 2026-04-28 19:17 | 40.00648 | -106.58907 | 15982 ft | 264 kts | 192° |
| 2026-04-28 19:17 | 39.98833 | -106.59180 | 15981 ft | 266 kts | 193° |
| 2026-04-28 19:18 | 39.96976 | -106.59476 | 15976 ft | 268 kts | 193° |
| 2026-04-28 19:18 | 39.95123 | -106.59777 | 15990 ft | 269 kts | 193° |
| 2026-04-28 19:18 | 39.93275 | -106.60078 | 16004 ft | 270 kts | 193° |
| 2026-04-28 19:18 | 39.91413 | -106.60378 | 15997 ft | 271 kts | 193° |
| 2026-04-28 19:19 | 39.89515 | -106.60695 | 15648 ft | 276 kts | 193° |
| 2026-04-28 19:19 | 39.87655 | -106.60989 | 15513 ft | 265 kts | 193° |
| 2026-04-28 19:19 | 39.85876 | -106.61275 | 15396 ft | 248 kts | 192° |
| 2026-04-28 19:19 | 39.84204 | -106.61543 | 15288 ft | 239 kts | 193° |
| 2026-04-28 19:20 | 39.82597 | -106.61808 | 15109 ft | 231 kts | 193° |
| 2026-04-28 19:20 | 39.81016 | -106.62066 | 14732 ft | 229 kts | 193° |
| 2026-04-28 19:20 | 39.79442 | -106.62328 | 14361 ft | 228 kts | 193° |
| 2026-04-28 19:20 | 39.77862 | -106.62582 | 13980 ft | 227 kts | 193° |
| 2026-04-28 19:21 | 39.76306 | -106.62837 | 13581 ft | 227 kts | 192° |
| 2026-04-28 19:21 | 39.74732 | -106.63092 | 13163 ft | 228 kts | 192° |
| 2026-04-28 19:21 | 39.73145 | -106.63345 | 12734 ft | 229 kts | 192° |
| 2026-04-28 19:21 | 39.71556 | -106.63602 | 12299 ft | 231 kts | 191° |
| 2026-04-28 19:22 | 39.70015 | -106.64033 | 11863 ft | 223 kts | 212° |
| 2026-04-28 19:22 | 39.69240 | -106.64854 | 11620 ft | 217 kts | 232° |
| 2026-04-28 19:22 | 39.68021 | -106.66872 | 11111 ft | 210 kts | 234° |
| 2026-04-28 19:22 | 39.67127 | -106.68334 | 10750 ft | 205 kts | 234° |
| 2026-04-28 19:23 | 39.66544 | -106.69957 | 10392 ft | 197 kts | 264° |
| 2026-04-28 19:23 | 39.66439 | -106.71682 | 10060 ft | 192 kts | 265° |
| 2026-04-28 19:23 | 39.66249 | -106.73388 | 9750 ft | 192 kts | 263° |
| 2026-04-28 19:23 | 39.66070 | -106.75124 | 9420 ft | 194 kts | 263° |
| 2026-04-28 19:24 | 39.65884 | -106.76841 | 9093 ft | 191 kts | 262° |
| 2026-04-28 19:24 | 39.65702 | -106.78519 | 8762 ft | 188 kts | 262° |
| 2026-04-28 19:24 | 39.65523 | -106.80175 | 8456 ft | 180 kts | 261° |
| 2026-04-28 19:24 | 39.65360 | -106.81674 | 8187 ft | 161 kts | 261° |
| 2026-04-28 19:25 | 39.65222 | -106.83051 | 7824 ft | 148 kts | 261° |
| 2026-04-28 19:25 | 39.65091 | -106.84329 | 7457 ft | 142 kts | 259° |
| 2026-04-28 19:25 | 39.64943 | -106.85529 | 7239 ft | 133 kts | 257° |
| 2026-04-28 19:25 | 39.64816 | -106.86684 | 7060 ft | 128 kts | 259° |
| 2026-04-28 19:26 | 39.64697 | -106.87819 | 6868 ft | 129 kts | 258° |
| 2026-04-28 19:26 | 39.64575 | -106.88951 | 6712 ft | 121 kts | 257° |
| 2026-04-28 19:26 | 39.64457 | -106.90015 | 6582 ft | 122 kts | 258° |
| 2026-04-28 19:26 | 39.64334 | -106.91089 | 6547 ft | 108 kts | 259° |
| 2026-04-28 19:27 | 39.64252 | -106.91856 | 6547 ft | 69 kts | 262° |
| 2026-04-28 19:27 | 39.64191 | -106.92264 | 6546 ft | 10 kts | 220° |
| 2026-04-28 19:27 | 39.64162 | -106.92274 | 6546 ft | 0 kts | 171° |
| 2026-04-28 19:27 | 39.64141 | -106.92271 | 6546 ft | 6 kts | 178° |
| 2026-04-28 19:28 | 39.64102 | -106.92234 | 6547 ft | 10 kts | 95° |
| 2026-04-28 19:28 | 39.64112 | -106.92109 | 6546 ft | 15 kts | 83° |
| 2026-04-28 19:28 | 39.64125 | -106.91969 | 6546 ft | 18 kts | 83° |
| 2026-04-28 19:28 | 39.64146 | -106.91781 | 6547 ft | 23 kts | 83° |
| 2026-04-28 19:29 | 39.64169 | -106.91567 | 6546 ft | 24 kts | 81° |
| 2026-04-28 19:29 | 39.64186 | -106.91420 | 6547 ft | 24 kts | 81° |
| 2026-04-28 19:29 | 39.64208 | -106.91213 | 6547 ft | 14 kts | 80° |
| 2026-04-28 19:29 | 39.64223 | -106.91086 | 6547 ft | 14 kts | 81° |
| 2026-04-28 19:30 | 39.64233 | -106.90963 | 6546 ft | 8 kts | 96° |
| 2026-04-28 19:30 | 39.64206 | -106.90928 | 6547 ft | 5 kts | 182° |
| 2026-04-28 19:30 | 39.64164 | -106.90919 | 6546 ft | 6 kts | 129° |
| 2026-04-28 19:30 | 39.64159 | -106.90860 | 6546 ft | 7 kts | 82° |
| 2026-04-28 19:31 | 39.64167 | -106.90791 | 6547 ft | 8 kts | 81° |
| 2026-04-28 19:31 | 39.64171 | -106.90758 | 6546 ft | 0 kts | 81° |